TimeEST,TemperatureF,Dew PointF,Humidity,Sea Level PressureIn,VisibilityMPH,Wind Direction,Wind SpeedMPH,Gust SpeedMPH,PrecipitationIn,Events,Conditions,WindDirDegrees,DateUTC
12:53 AM,63.0,61.0,93,30.22,5.0,ENE,6.9,-,N/A,,Overcast,60,2013-01-05 05:53:00
1:39 AM,62.6,60.8,94,30.23,2.0,NNE,6.9,-,N/A,,Overcast,30,2013-01-05 06:39:00
1:53 AM,62.1,61.0,96,30.22,2.0,NNE,10.4,-,N/A,,Overcast,30,2013-01-05 06:53:00
2:04 AM,62.6,60.8,94,30.22,1.8,NNE,8.1,-,N/A,,Overcast,30,2013-01-05 07:04:00
2:15 AM,62.6,60.8,94,30.21,2.0,NE,10.4,-,N/A,,Overcast,40,2013-01-05 07:15:00
2:38 AM,62.6,60.8,94,30.22,4.0,NE,11.5,-,N/A,,Overcast,40,2013-01-05 07:38:00
2:53 AM,62.1,61.0,96,30.21,3.0,NNE,9.2,-,N/A,,Overcast,30,2013-01-05 07:53:00
3:00 AM,62.6,60.8,94,30.22,2.0,NNE,8.1,-,N/A,,Overcast,30,2013-01-05 08:00:00
3:18 AM,62.6,60.8,94,30.22,4.0,NNE,11.5,-,N/A,,Overcast,30,2013-01-05 08:18:00
3:53 AM,62.1,60.1,93,30.21,10.0,NE,9.2,-,N/A,,Overcast,40,2013-01-05 08:53:00
4:53 AM,62.1,60.1,93,30.21,10.0,ENE,6.9,-,N/A,,Overcast,60,2013-01-05 09:53:00
5:53 AM,62.1,60.1,93,30.22,10.0,NE,9.2,-,N/A,,Overcast,50,2013-01-05 10:53:00
6:53 AM,62.1,59.0,90,30.23,10.0,ENE,8.1,-,N/A,,Overcast,60,2013-01-05 11:53:00
7:53 AM,62.1,60.1,93,30.25,10.0,ENE,5.8,-,N/A,,Overcast,70,2013-01-05 12:53:00
8:53 AM,63.0,59.0,87,30.26,10.0,ENE,11.5,-,N/A,,Overcast,70,2013-01-05 13:53:00
9:19 AM,64.4,60.8,88,30.27,10.0,ENE,8.1,-,N/A,,Scattered Clouds,60,2013-01-05 14:19:00
9:53 AM,66.0,60.1,81,30.27,10.0,ENE,6.9,-,N/A,,Clear,60,2013-01-05 14:53:00
10:53 AM,70.0,61.0,73,30.26,10.0,East,10.4,-,N/A,,Clear,90,2013-01-05 15:53:00
11:35 AM,71.6,60.8,69,30.25,10.0,ENE,10.4,-,N/A,,Mostly Cloudy,70,2013-01-05 16:35:00
11:46 AM,73.4,60.8,65,30.24,10.0,East,10.4,-,N/A,,Scattered Clouds,80,2013-01-05 16:46:00
11:53 AM,72.0,61.0,68,30.23,10.0,ENE,9.2,-,N/A,,Mostly Cloudy,70,2013-01-05 16:53:00
12:11 PM,73.4,60.8,65,30.23,10.0,ENE,9.2,-,N/A,,Scattered Clouds,60,2013-01-05 17:11:00
12:53 PM,73.9,62.1,66,30.21,10.0,ENE,8.1,-,N/A,,Scattered Clouds,60,2013-01-05 17:53:00
1:53 PM,77.0,63.0,62,30.17,10.0,East,11.5,-,N/A,,Mostly Cloudy,90,2013-01-05 18:53:00
2:53 PM,78.1,63.0,60,30.16,10.0,East,13.8,-,N/A,,Mostly Cloudy,80,2013-01-05 19:53:00
3:53 PM,77.0,63.0,62,30.16,10.0,ENE,9.2,-,N/A,,Mostly Cloudy,60,2013-01-05 20:53:00
4:53 PM,75.9,64.0,67,30.17,10.0,East,8.1,-,N/A,,Mostly Cloudy,80,2013-01-05 21:53:00
5:53 PM,73.0,64.0,73,30.18,10.0,NE,3.5,-,N/A,,Mostly Cloudy,50,2013-01-05 22:53:00
6:53 PM,73.0,64.9,76,30.19,10.0,Calm,Calm,-,N/A,,Overcast,0,2013-01-05 23:53:00
7:53 PM,70.0,64.0,81,30.21,10.0,ENE,3.5,-,N/A,,Partly Cloudy,70,2013-01-06 00:53:00
8:53 PM,69.1,64.0,84,30.22,10.0,East,8.1,-,N/A,,Partly Cloudy,90,2013-01-06 01:53:00
9:53 PM,68.0,64.0,87,30.22,10.0,ENE,5.8,-,N/A,,Clear,60,2013-01-06 02:53:00
10:53 PM,66.9,64.0,90,30.21,10.0,ENE,4.6,-,N/A,,Clear,60,2013-01-06 03:53:00
11:53 PM,66.0,64.0,93,30.19,7.0,ENE,3.5,-,N/A,,Clear,60,2013-01-06 04:53:00